Domov               UVHVVR             MKGP            O straneh              
ZDRAVSTVENO VARSTVO RASTLIN
  MREŽA AGROMET. POSTAJ
 ► PROGNOSTIČNA OBVESTILA
AGROMETEOROLOŠKI PODATKI -
ARSO
OBVLADOVANJE TVEGANJ ZARADI
NEUGODNIH VREMENSKIH RAZMER
  ► NARAVNE NESREČE
  ► SUŠA/MOČA
  ► NAMAKANJE
  ► ŽLED (gozdarstvo)
KARTOGRAFSKI PRIKAZI
SPLETNE POVEZAVE
PROJEKTI IN PUBLIKACIJE

AGROMETEOROLOŠKA MREŽA: VREMENSKE POSTAJE IN FENOLOŠKA OPAZOVANJA

Pregled podatkov za lokacijo Maribor - BTŠ, meteorološka postaja 35810

Pregled senzorjev na lokaciji

ID Ime Zadnja
vrednost
Datum in čas
zadnje
spremembe
(Lokalni čas)
Tip
senzorja
4297 Omočenost lista (U) 0 U 4.4.2020 23:30 A730WET
1723 Padavine (mm) 0 mm 4.4.2020 23:30 Generic 0.2 mm
1722 Relativna vlaga 2 m (% RH) 63.05 % RH 4.4.2020 23:30 Generic 0 - 100 %
1721 Temperatura 2 m (°C) 5.62 °C 4.4.2020 23:30 Generic -40 - +60 °C
4296 Smer vetra (°) 263.12 ° 4.4.2020 23:30 Generic 0 - 360
4295 Hitrost vetra (km/h) 2.78 km/h 4.4.2020 23:30 Generic 100 km/h

Pregled podatkov zadnjih 24 ur

Zap.
št.
Datum in čas
(Centralno
evropski čas)
Maribor - BTŠ
Omočenost
lista
Padavine Relativna
vlaga
2
m
Temperatura
2
m
Smer
vetra
Hitrost
vetra
1 5.4.2020 00:00
2 4.4.2020 23:30
3 4.4.2020 23:00
4 4.4.2020 22:30 0 0 63.1 5.6 263.1 2.8
5 4.4.2020 22:00 0 0 63.1 5.7 268.4 2.5
6 4.4.2020 21:30 0 0 65.7 4.8 257.3 1.7
7 4.4.2020 21:00 0 0 67.1 4.5 268.2 1.2
8 4.4.2020 20:30 0 0 66.5 4.9 236.9 1.2
9 4.4.2020 20:00 0 0 57.8 6.8 278.5 1.5
10 4.4.2020 19:30 0 0 54.1 7.9 312.7 0.9
11 4.4.2020 19:00 0 0 53.3 8.7 353.7 0.6
12 4.4.2020 18:30 0 0 51.4 10.2 298.1 0.6
13 4.4.2020 18:00 0 0 48.2 11.6 316.7 0.5
14 4.4.2020 17:30 0 0 41.4 12.9 52.7 1
15 4.4.2020 17:00 0 0 38.5 13.7 91.3 2.4
16 4.4.2020 16:30 0 0 38.2 14.5 121.6 1.7
17 4.4.2020 16:00 0 0 38.9 14.4 87.9 2.5
18 4.4.2020 15:30 0 0 41.2 14.1 149.3 2.6
19 4.4.2020 15:00 0 0 38.6 14.9 112 2.7
20 4.4.2020 14:30 0 0 38.3 15.5 182.7 2.1
21 4.4.2020 14:00 0 0 42.7 14 187.3 2.7
22 4.4.2020 13:30 0 0 44 13.4 56.4 3
23 4.4.2020 13:00 0 0 44.6 13.4 185.2 2.5
24 4.4.2020 12:30 0 0 45.9 13.1 115.8 2.5
25 4.4.2020 12:00 0 0 46 12.7 335 2.6
26 4.4.2020 11:30 0 0 44.4 13.6 137.1 3
27 4.4.2020 11:00 0 0 45.2 13.5 60.8 2.7
28 4.4.2020 10:30 0 0 46.2 12.6 276.7 2.7
29 4.4.2020 10:00 0 0 47.4 12.2 121.4 2.5
30 4.4.2020 09:30 0 0 50.4 11.5 173.6 2.2
31 4.4.2020 09:00 0 0 51.6 10.6 150.9 1.9
32 4.4.2020 08:30 0 0 57.9 8.7 303.7 2.2
33 4.4.2020 08:00 0 0 66.7 6.1 268.7 3.4
34 4.4.2020 07:30 0 0 68.8 5 275.9 3.6
35 4.4.2020 07:00 0 0 70.3 4.4 272.7 3.2
36 4.4.2020 06:30 0 0 74.9 2.7 264.2 1.7
37 4.4.2020 06:00 0 0 69.6 4.1 277.3 2.9
38 4.4.2020 05:30 0 0 72.6 3.4 266 2.8
39 4.4.2020 05:00 0 0 73.1 3 277.8 1.9
40 4.4.2020 04:30 0 0 72.1 3.6 255.1 2.4
41 4.4.2020 04:00 0 0 76.7 2.2 258.5 1.3
42 4.4.2020 03:30 0 0 76.4 2.2 248.8 1
43 4.4.2020 03:00 0 0 74.7 3 243.7 0.7
44 4.4.2020 02:30 0 0 72 3.7 281.9 1
45 4.4.2020 02:00 0 0 70.7 4.7 338.2 1.2
46 4.4.2020 01:30 0 0 70.6 5 165.5 0.8
47 4.4.2020 01:00 0 0 67.1 5.7 246.5 1.1
48 4.4.2020 00:30 0 0 62.6 6.8 307 1.3
© 2011 Ministrstvo za kmetijstvo, gozdarstvo in prehrano. Vse pravice pridržane.